Time;durP1;ratioP1;P1;durP2;ratioP2;P2;SDS_P1;SDS_P2;PMS_P1;PMS_P2;Temp;Humidity;BMP_temperature;BMP_pressure;BME280_temperature;BME280_humidity;BME280_pressure;Samples;Min_cycle;Max_cycle;Signal;HPM_P1;HPM_P2
2021/11/28 00:00:46;;;;;;;3.95;3.65;;;;;;;1.65;87.70;98044.38;10442914;28;20041;-72
2021/11/28 00:05:59;;;;;;;5.22;4.82;;;;;;;1.64;87.31;98053.06;10442713;28;20041;-72
2021/11/28 00:11:18;;;;;;;5.78;5.47;;;;;;;1.61;87.59;98058.31;10459923;28;20116;-72
2021/11/28 00:16:20;;;;;;;5.32;4.93;;;;;;;1.69;86.99;98060.69;10442176;28;20049;-72
2021/11/28 00:21:22;;;;;;;6.47;5.97;;;;;;;1.65;87.14;98059.09;10459934;28;20040;-71
2021/11/28 00:26:25;;;;;;;6.03;5.63;;;;;;;1.70;86.80;98063.22;10458650;28;20049;-72
2021/11/28 00:31:26;;;;;;;6.55;6.13;;;;;;;1.70;86.52;98072.75;10458912;28;20083;-71
2021/11/28 00:36:28;;;;;;;7.30;6.80;;;;;;;1.61;87.13;98060.06;10458026;28;20086;-72
2021/11/28 00:41:30;;;;;;;8.07;7.57;;;;;;;1.72;87.15;98066.63;10442270;28;20037;-72
2021/11/28 00:46:33;;;;;;;7.63;7.13;;;;;;;1.93;86.40;98062.59;10467741;28;20048;-72
2021/11/28 00:56:37;;;;;;;7.88;7.38;;;;;;;2.08;85.31;98071.69;10465777;28;20128;-72
2021/11/28 01:01:39;;;;;;;7.82;7.32;;;;;;;2.10;84.81;98082.00;10448049;28;20044;-71
2021/11/28 01:06:44;;;;;;;7.82;7.22;;;;;;;2.17;84.19;98086.97;10447846;28;20109;-73
2021/11/28 01:11:47;;;;;;;7.90;7.40;;;;;;;2.17;83.80;98093.84;10448195;28;20072;-71
2021/11/28 01:16:49;;;;;;;7.10;6.70;;;;;;;2.22;82.89;98108.41;10465200;28;20049;-71
2021/11/28 01:22:04;;;;;;;7.32;6.78;;;;;;;2.29;82.49;98106.47;10447105;28;20066;-71
2021/11/28 01:27:10;;;;;;;7.22;6.82;;;;;;;2.12;83.14;98108.69;10465031;28;20084;-72
2021/11/28 01:32:12;;;;;;;6.68;6.28;;;;;;;2.14;82.65;98110.38;10464794;28;20044;-71
2021/11/28 01:37:14;;;;;;;7.07;6.57;;;;;;;2.06;83.12;98120.09;10446539;28;20052;-71
2021/11/28 01:42:59;;;;;;;6.25;5.85;;;;;;;2.23;81.45;98112.69;10445928;28;20045;-72
2021/11/28 01:48:06;;;;;;;6.72;6.22;;;;;;;2.08;82.22;98115.72;10280425;28;20093;-72
2021/11/28 01:53:13;;;;;;;6.13;5.72;;;;;;;2.13;81.38;98098.31;10278511;28;20051;-72
2021/11/28 01:58:15;;;;;;;6.78;6.35;;;;;;;1.81;82.35;98082.81;10280280;28;20452;-70
2021/11/28 02:03:18;;;;;;;6.57;6.07;;;;;;;1.65;82.90;98084.97;10311572;22;20037;-70
2021/11/28 02:08:20;;;;;;;6.65;6.15;;;;;;;1.46;83.69;98084.59;10419622;28;20065;-70
2021/11/28 02:13:24;;;;;;;7.47;6.97;;;;;;;1.35;84.39;98078.88;10419986;28;20041;-71
2021/11/28 02:18:27;;;;;;;7.35;6.85;;;;;;;1.40;83.96;98074.41;10401822;28;20415;-70
2021/11/28 02:23:29;;;;;;;7.68;7.10;;;;;;;1.10;85.15;98079.47;10419842;28;20046;-70
2021/11/28 02:28:33;;;;;;;8.30;7.70;;;;;;;0.84;86.40;98071.50;10401689;28;20053;-70
2021/11/28 02:33:36;;;;;;;7.57;7.07;;;;;;;0.77;86.16;98055.31;10401377;28;20081;-70
2021/11/28 02:38:38;;;;;;;8.95;8.25;;;;;;;0.61;86.87;98062.56;10401568;28;20056;-70
2021/11/28 02:43:41;;;;;;;8.20;7.55;;;;;;;0.53;87.01;98067.06;10401434;28;20537;-70
2021/11/28 02:48:44;;;;;;;8.48;7.90;;;;;;;0.54;86.75;98076.53;10385844;28;20080;-70
2021/11/28 02:53:46;;;;;;;8.18;7.57;;;;;;;0.72;86.73;98081.28;10419297;28;20056;-69
2021/11/28 02:58:48;;;;;;;8.95;8.30;;;;;;;0.41;86.33;98081.13;10399979;28;20462;-69
2021/11/28 03:03:51;;;;;;;10.43;9.73;;;;;;;0.37;87.13;98076.91;10399165;28;20053;-69
2021/11/28 03:08:53;;;;;;;11.52;10.63;;;;;;;0.38;87.82;98076.00;10400352;28;20073;-70
2021/11/28 03:13:55;;;;;;;11.30;10.40;;;;;;;0.55;86.65;98077.38;10399815;28;20045;-70
2021/11/28 03:18:57;;;;;;;11.13;10.18;;;;;;;0.59;86.38;98090.19;10417137;28;20139;-70
2021/11/28 03:24:03;;;;;;;9.98;9.20;;;;;;;0.82;85.07;98092.25;10398766;28;20450;-69
2021/11/28 03:29:20;;;;;;;9.25;8.40;;;;;;;0.79;84.70;98089.72;10417283;28;20129;-69
2021/11/28 03:34:42;;;;;;;8.23;7.63;;;;;;;0.78;84.64;98092.34;10418236;28;20049;-71
2021/11/28 03:39:58;;;;;;;8.23;7.63;;;;;;;0.85;84.08;98091.34;10402537;28;20124;-70
2021/11/28 03:45:14;;;;;;;5.97;5.57;;;;;;;0.93;83.00;98087.69;10419544;28;20042;-70
2021/11/28 03:50:22;;;;;;;6.03;5.53;;;;;;;0.95;82.49;98082.47;10401830;28;20423;-70
2021/11/28 03:55:25;;;;;;;5.82;5.35;;;;;;;0.80;82.35;98083.69;10401349;28;20095;-70
2021/11/28 04:00:27;;;;;;;5.78;5.38;;;;;;;0.73;82.62;98090.72;10400769;28;20041;-71
2021/11/28 04:05:35;;;;;;;4.72;4.32;;;;;;;0.75;82.46;98083.78;10399581;28;20045;-70
2021/11/28 04:10:37;;;;;;;4.85;4.45;;;;;;;0.81;81.50;98087.97;10396485;28;20072;-71
2021/11/28 04:15:42;;;;;;;5.05;4.15;;;;;;;1.00;79.57;98080.59;10378993;28;20049;-70
2021/11/28 04:20:49;;;;;;;;;;;;;;;0.85;79.73;98083.56;10395713;28;20506;-71
2021/11/28 04:25:52;;;;;;;5.38;4.25;;;;;;;0.66;80.69;98077.97;10398470;28;19921;-71
2021/11/28 04:30:54;;;;;;;4.63;4.18;;;;;;;0.48;81.30;98087.00;10397463;28;20041;-70
2021/11/28 04:35:56;;;;;;;4.75;3.80;;;;;;;0.59;80.96;98089.34;10397716;28;20046;-71
2021/11/28 04:40:59;;;;;;;6.20;5.80;;;;;;;0.59;81.39;98091.94;10396092;28;20038;-71
2021/11/28 04:46:06;;;;;;;5.22;4.82;;;;;;;0.37;82.33;98095.00;10396794;28;20054;-70
2021/11/28 04:51:09;;;;;;;6.07;5.65;;;;;;;0.42;82.40;98090.56;10395859;28;20073;-70
2021/11/28 04:56:11;;;;;;;4.95;4.40;;;;;;;0.34;81.94;98092.47;10397673;28;20364;-70
2021/11/28 05:01:13;;;;;;;4.93;4.53;;;;;;;0.05;83.08;98106.03;10395679;28;20042;-70
2021/11/28 05:06:16;;;;;;;5.05;4.65;;;;;;;0.10;83.14;98111.09;10355891;28;1166952;-70
2021/11/28 05:11:36;;;;;;;5.72;5.20;;;;;;;0.03;83.30;98101.75;10415781;28;20045;-70
2021/11/28 05:16:39;;;;;;;6.18;5.70;;;;;;;-0.09;83.81;98097.69;10396940;28;20103;-70
2021/11/28 05:22:16;;;;;;;7.05;6.38;;;;;;;-0.28;85.25;98103.22;10402407;28;20045;-71
2021/11/28 05:27:20;;;;;;;6.00;5.47;;;;;;;-0.37;85.67;98111.13;10397667;28;20045;-69
2021/11/28 05:32:22;;;;;;;6.93;6.22;;;;;;;-0.35;85.99;98099.06;10422588;28;20415;-69
2021/11/28 05:37:42;;;;;;;6.70;6.18;;;;;;;-0.39;85.87;98106.91;10407398;28;20042;-69
2021/11/28 05:42:53;;;;;;;6.32;5.82;;;;;;;-0.44;86.23;98096.66;10403293;28;20049;-70
2021/11/28 05:47:57;;;;;;;6.18;5.57;;;;;;;-0.45;86.16;98087.19;10402926;28;20049;-69
2021/11/28 05:52:59;;;;;;;6.25;5.65;;;;;;;-0.35;84.68;98085.31;10403111;28;20042;-70
2021/11/28 05:58:01;;;;;;;6.97;6.30;;;;;;;-0.57;85.40;98079.69;10402766;28;20041;-69
2021/11/28 06:03:03;;;;;;;7.18;6.57;;;;;;;-0.28;85.54;98081.72;10402216;28;20132;-70
2021/11/28 06:08:11;;;;;;;6.95;6.45;;;;;;;-0.09;83.66;98075.31;10420203;28;20053;-70
2021/11/28 06:13:13;;;;;;;6.72;6.13;;;;;;;-0.49;84.45;98069.22;10419939;28;20068;-70
2021/11/28 06:18:20;;;;;;;7.47;6.78;;;;;;;-0.70;85.56;98083.38;10402279;28;20037;-70
2021/11/28 06:23:43;;;;;;;7.53;6.82;;;;;;;-0.96;86.60;98097.56;10401938;28;20050;-70
2021/11/28 06:28:44;;;;;;;7.65;7.00;;;;;;;-0.72;86.80;98095.44;10401892;28;20053;-70
2021/11/28 06:33:46;;;;;;;6.60;6.00;;;;;;;-0.32;84.39;98088.66;10402208;28;20041;-69
2021/11/28 06:39:07;;;;;;;6.53;5.95;;;;;;;-0.71;85.51;98089.38;10419313;28;20042;-70
2021/11/28 06:44:09;;;;;;;7.03;6.50;;;;;;;-0.79;86.43;98092.97;10419008;28;20121;-70
2021/11/28 06:49:11;;;;;;;7.25;6.55;;;;;;;-0.61;86.24;98091.78;10400940;28;20056;-70
2021/11/28 06:54:13;;;;;;;7.00;6.45;;;;;;;-0.81;86.67;98107.59;10420136;28;20145;-70
2021/11/28 06:59:16;;;;;;;6.38;5.88;;;;;;;-0.96;87.40;98114.78;10402988;28;20052;-70
2021/11/28 07:04:19;;;;;;;7.50;6.80;;;;;;;-1.06;87.97;98117.50;10400754;28;20499;-70
2021/11/28 07:09:42;;;;;;;7.50;6.90;;;;;;;-1.07;88.40;98128.66;10403877;28;20077;-69
2021/11/28 07:14:44;;;;;;;8.20;7.50;;;;;;;-0.96;88.43;98132.81;10401625;28;20519;-70
2021/11/28 07:19:53;;;;;;;8.30;7.57;;;;;;;-0.66;88.20;98141.78;10400767;28;20570;-69
2021/11/28 07:25:18;;;;;;;7.55;6.95;;;;;;;-0.56;86.85;98136.44;10402690;28;20446;-70
2021/11/28 07:30:24;;;;;;;8.30;7.50;;;;;;;-0.66;87.08;98142.63;10399136;28;20042;-70
2021/11/28 07:35:32;;;;;;;8.43;7.57;;;;;;;-0.70;88.03;98145.28;10399145;28;20049;-70
2021/11/28 07:40:43;;;;;;;8.88;7.82;;;;;;;-0.12;86.60;98149.41;10399014;28;20041;-71
2021/11/28 07:45:58;;;;;;;9.75;8.85;;;;;;;-0.21;86.67;98147.84;10400878;28;20045;-72
2021/11/28 07:51:18;;;;;;;10.38;9.50;;;;;;;-0.39;87.20;98149.03;10416772;28;20069;-71
2021/11/28 07:56:22;;;;;;;9.40;8.60;;;;;;;-0.18;87.28;98146.91;10415644;28;20056;-70
2021/11/28 08:01:42;;;;;;;8.27;7.47;;;;;;;-0.04;87.02;98155.28;10416895;28;20045;-71
2021/11/28 08:07:06;;;;;;;8.55;7.80;;;;;;;0.09;86.87;98155.88;10417112;28;20046;-72
2021/11/28 08:12:41;;;;;;;7.30;6.70;;;;;;;0.03;86.53;98151.69;10371672;28;20045;-72
2021/11/28 08:17:45;;;;;;;8.07;7.38;;;;;;;0.05;86.82;98165.44;10416225;28;20088;-71
2021/11/28 08:22:47;;;;;;;8.05;7.28;;;;;;;0.12;86.89;98169.59;10417288;28;20041;-71
2021/11/28 08:27:48;;;;;;;7.93;7.22;;;;;;;0.06;86.95;98174.88;10417802;28;20045;-70
2021/11/28 08:32:50;;;;;;;8.60;7.95;;;;;;;0.09;87.28;98176.53;10416601;28;20100;-71
2021/11/28 08:38:15;;;;;;;8.10;7.40;;;;;;;0.14;87.40;98172.16;10396643;28;20053;-72
2021/11/28 08:43:17;;;;;;;9.80;8.80;;;;;;;0.42;86.76;98173.28;10416478;28;20133;-72
2021/11/28 08:48:18;;;;;;;9.23;8.43;;;;;;;0.85;83.41;98174.94;10416786;28;20049;-71
2021/11/28 08:53:20;;;;;;;13.80;8.70;;;;;;;0.65;83.53;98180.53;10416950;28;20041;-72
2021/11/28 08:58:22;;;;;;;10.63;9.82;;;;;;;0.42;84.94;98183.63;10415760;28;20124;-73
2021/11/28 09:03:24;;;;;;;9.48;8.68;;;;;;;0.38;84.88;98187.16;10400508;28;20454;-71
2021/11/28 09:08:26;;;;;;;10.25;9.25;;;;;;;0.59;84.36;98174.66;10422757;28;20454;-72
2021/11/28 09:13:28;;;;;;;9.82;9.02;;;;;;;0.53;85.48;98178.22;10422612;28;20065;-72
2021/11/28 09:18:41;;;;;;;9.15;8.35;;;;;;;0.61;85.79;98185.81;10404325;28;20049;-72
2021/11/28 09:29:05;;;;;;;10.43;9.63;;;;;;;1.08;84.37;98176.16;10423403;28;20045;-71
2021/11/28 09:34:06;;;;;;;11.52;10.52;;;;;;;1.20;83.04;98171.53;10423661;28;20065;-71
2021/11/28 09:39:08;;;;;;;11.68;10.55;;;;;;;0.94;84.24;98169.56;10422263;28;20554;-73
2021/11/28 09:44:33;;;;;;;11.38;10.27;;;;;;;0.99;84.60;98156.53;10404521;28;20048;-72
2021/11/28 09:49:36;;;;;;;10.45;9.55;;;;;;;1.18;83.43;98159.53;10421437;28;20053;-72
2021/11/28 09:54:42;;;;;;;11.55;10.43;;;;;;;1.14;82.49;98152.72;10387497;28;20092;-71
2021/11/28 09:59:46;;;;;;;12.20;11.15;;;;;;;0.99;83.45;98157.38;10422246;28;20487;-72
2021/11/28 10:04:48;;;;;;;11.68;10.75;;;;;;;0.97;84.29;98153.09;10421136;28;20044;-72
2021/11/28 10:09:50;;;;;;;10.85;9.90;;;;;;;1.10;83.85;98148.50;10420231;28;20038;-72
2021/11/28 10:14:58;;;;;;;9.05;8.25;;;;;;;1.25;83.57;98149.00;10420487;28;20141;-71
2021/11/28 10:20:02;;;;;;;8.95;7.95;;;;;;;1.48;83.30;98134.63;10421159;28;20125;-71
2021/11/28 10:25:15;;;;;;;8.70;8.05;;;;;;;1.46;83.24;98144.16;10421511;28;20537;-72
2021/11/28 10:30:42;;;;;;;9.40;8.65;;;;;;;1.43;83.18;98141.66;10421128;28;20037;-72
2021/11/28 10:36:03;;;;;;;;;;;;;;;1.75;82.17;98133.88;10421163;28;20059;-70
2021/11/28 10:41:27;;;;;;;9.95;9.10;;;;;;;1.96;81.65;98135.06;10420619;28;19960;-71
2021/11/28 10:46:33;;;;;;;10.55;9.55;;;;;;;1.66;82.42;98135.88;10420938;28;20052;-71
2021/11/28 10:51:41;;;;;;;10.45;9.55;;;;;;;1.63;82.25;98133.34;10420920;28;20458;-71
2021/11/28 10:56:46;;;;;;;10.38;9.32;;;;;;;1.97;80.14;98126.38;10421961;28;20124;-71
2021/11/28 11:01:48;;;;;;;10.73;9.73;;;;;;;1.79;81.07;98124.31;10422605;28;20034;-73
2021/11/28 11:07:09;;;;;;;9.68;8.77;;;;;;;1.76;80.62;98119.19;10403528;28;20096;-71
2021/11/28 11:12:21;;;;;;;9.98;9.18;;;;;;;1.87;81.46;98122.34;10420335;28;20038;-72
2021/11/28 11:17:27;;;;;;;11.82;10.60;;;;;;;2.03;79.34;98123.59;10419911;28;20038;-72
2021/11/28 11:22:35;;;;;;;10.48;9.60;;;;;;;1.90;80.25;98121.41;10418436;28;20490;-71
2021/11/28 11:27:40;;;;;;;9.20;8.40;;;;;;;2.55;76.46;98117.81;10417819;28;20358;-71
2021/11/28 11:32:53;;;;;;;11.25;10.20;;;;;;;2.27;77.50;98116.03;10418332;28;20091;-73
2021/11/28 11:38:04;;;;;;;8.88;8.18;;;;;;;2.22;77.36;98103.22;10402275;28;20053;-72
2021/11/28 11:43:08;;;;;;;10.65;9.68;;;;;;;2.33;78.73;98099.47;10401606;28;20571;-72
2021/11/28 11:48:10;;;;;;;11.55;10.55;;;;;;;2.28;79.64;98099.59;10401956;28;20559;-72
2021/11/28 11:53:14;;;;;;;12.18;10.82;;;;;;;2.71;78.08;98093.97;10399397;28;20041;-71
2021/11/28 11:58:53;;;;;;;11.75;10.77;;;;;;;2.85;76.67;98097.88;10416084;28;20045;-71
2021/11/28 12:03:56;;;;;;;8.98;8.07;;;;;;;2.69;75.50;98100.09;10415418;28;20555;-71
2021/11/28 12:08:58;;;;;;;10.63;9.68;;;;;;;2.69;76.20;98107.88;10417629;28;20126;-72
2021/11/28 12:14:04;;;;;;;11.27;9.80;;;;;;;2.55;76.11;98100.50;10401097;28;20108;-72
2021/11/28 12:19:07;;;;;;;11.35;10.23;;;;;;;2.71;76.24;98100.91;10418179;28;20045;-72
2021/11/28 12:24:24;;;;;;;12.00;10.82;;;;;;;2.78;76.03;98095.44;10417992;28;20041;-72
2021/11/28 12:29:34;;;;;;;10.18;9.30;;;;;;;2.85;76.31;98098.72;10418252;28;20049;-74
2021/11/28 12:34:49;;;;;;;8.40;7.60;;;;;;;2.84;75.43;98099.63;10399516;28;20404;-72
2021/11/28 12:39:52;;;;;;;7.20;6.60;;;;;;;2.87;71.29;98096.91;10417762;28;20045;-72
2021/11/28 12:44:59;;;;;;;15.77;14.18;;;;;;;2.98;70.27;98094.00;10417746;28;20045;-70
2021/11/28 12:50:17;;;;;;;7.13;6.35;;;;;;;3.07;69.81;98096.28;10418202;28;20045;-71
2021/11/28 12:55:25;;;;;;;12.90;11.65;;;;;;;2.93;70.98;98095.88;10418145;28;20523;-72
2021/11/28 13:00:32;;;;;;;7.55;6.85;;;;;;;3.05;68.93;98090.28;10418962;28;20038;-72
2021/11/28 13:05:43;;;;;;;7.40;6.07;;;;;;;3.09;68.74;98099.66;10418535;28;20041;-72
2021/11/28 13:10:46;;;;;;;6.90;6.25;;;;;;;2.94;69.79;98100.16;10417119;28;20426;-70
2021/11/28 13:16:00;;;;;;;9.60;8.63;;;;;;;2.91;69.43;98106.28;10416332;28;20046;-73
2021/11/28 13:21:59;;;;;;;6.15;4.47;;;;;;;3.00;68.94;98107.75;10415676;28;20042;-71
2021/11/28 13:27:33;;;;;;;5.30;4.80;;;;;;;2.77;70.19;98103.28;10337692;28;20054;-71
2021/11/28 13:32:36;;;;;;;9.70;7.45;;;;;;;2.85;69.61;98097.88;10332186;28;20057;-71
2021/11/28 13:37:38;;;;;;;6.95;6.25;;;;;;;2.64;70.75;98101.97;10330230;28;20481;-71
2021/11/28 13:42:46;;;;;;;10.57;8.60;;;;;;;2.70;71.26;98091.41;10329348;28;20064;-72
2021/11/28 13:47:51;;;;;;;13.82;9.07;;;;;;;2.72;70.08;98105.19;10331030;28;20058;-71
2021/11/28 13:53:11;;;;;;;13.70;11.07;;;;;;;2.84;68.85;98106.56;10336891;28;20489;-71
2021/11/28 13:58:13;;;;;;;20.40;17.20;;;;;;;2.67;70.82;98101.88;10344201;28;20054;-71
2021/11/28 14:03:14;;;;;;;5.30;4.80;;;;;;;2.69;70.64;98102.69;10370622;28;20076;-70
2021/11/28 14:08:16;;;;;;;5.65;5.10;;;;;;;2.63;70.59;98102.88;10381116;28;20041;-70
2021/11/28 14:13:18;;;;;;;9.00;8.00;;;;;;;2.58;70.48;98100.44;10381467;28;20046;-70
2021/11/28 14:18:19;;;;;;;13.68;12.45;;;;;;;2.58;70.59;98102.19;10380955;28;20069;-70
2021/11/28 14:23:29;;;;;;;7.45;6.05;;;;;;;2.48;71.02;98105.06;10381276;28;20049;-69
2021/11/28 14:28:34;;;;;;;9.45;5.93;;;;;;;2.34;72.32;98109.78;10380134;28;20121;-71
2021/11/28 14:33:53;;;;;;;5.75;5.25;;;;;;;2.47;71.29;98105.91;10379392;28;20045;-70
2021/11/28 14:38:58;;;;;;;7.35;6.75;;;;;;;2.13;73.72;98115.59;10381266;28;20046;-70
2021/11/28 14:44:02;;;;;;;11.88;10.77;;;;;;;2.02;74.11;98113.28;10398850;28;20495;-71
2021/11/28 14:49:05;;;;;;;17.00;9.43;;;;;;;1.84;75.32;98113.81;10421276;28;20080;-70
2021/11/28 14:54:27;;;;;;;10.25;7.63;;;;;;;1.73;76.16;98114.97;10418306;28;20041;-71
2021/11/28 14:59:29;;;;;;;15.60;14.15;;;;;;;1.99;74.49;98114.25;10442108;28;20088;-70
2021/11/28 15:04:32;;;;;;;12.18;10.98;;;;;;;2.12;73.37;98116.47;10460130;28;20045;-69
2021/11/28 15:09:35;;;;;;;10.20;8.32;;;;;;;2.02;73.33;98114.13;10460513;28;20056;-70
2021/11/28 15:14:38;;;;;;;10.27;9.30;;;;;;;1.92;74.63;98117.03;10459243;28;20129;-70
2021/11/28 15:19:39;;;;;;;10.38;9.35;;;;;;;1.82;74.92;98125.97;10459786;28;20048;-69
2021/11/28 15:24:41;;;;;;;7.90;7.18;;;;;;;1.65;75.59;98126.41;10441025;28;20045;-69
2021/11/28 15:29:43;;;;;;;8.45;7.65;;;;;;;1.51;76.31;98125.03;10459966;28;20082;-69
2021/11/28 15:34:45;;;;;;;8.93;8.10;;;;;;;1.34;77.03;98124.63;10458518;28;20063;-70
2021/11/28 15:39:47;;;;;;;9.77;8.88;;;;;;;1.22;77.72;98120.59;10459581;28;20052;-70
2021/11/28 15:44:50;;;;;;;10.85;8.07;;;;;;;1.15;77.98;98126.81;10458430;28;20041;-70
2021/11/28 15:49:51;;;;;;;12.25;11.02;;;;;;;1.06;78.58;98133.94;10458622;28;20083;-71
2021/11/28 15:54:53;;;;;;;21.00;15.20;;;;;;;1.01;79.07;98134.88;10458393;28;20075;-69
2021/11/28 15:59:55;;;;;;;9.95;8.52;;;;;;;1.19;78.82;98140.50;10439897;28;20102;-70
2021/11/28 16:04:57;;;;;;;9.50;8.70;;;;;;;1.19;79.00;98137.91;10457332;28;20037;-70
2021/11/28 16:09:59;;;;;;;10.65;9.27;;;;;;;1.21;78.39;98141.34;10457668;28;20479;-70
2021/11/28 16:15:01;;;;;;;9.00;8.20;;;;;;;0.94;79.28;98148.03;10458140;28;20406;-70
2021/11/28 16:20:05;;;;;;;10.98;10.07;;;;;;;0.80;80.44;98150.06;10458736;28;20049;-69
2021/11/28 16:25:08;;;;;;;15.80;13.68;;;;;;;0.81;80.67;98157.78;10457121;28;20060;-69
2021/11/28 16:30:12;;;;;;;46.05;21.67;;;;;;;0.87;80.80;98157.66;10457092;28;20582;-70
2021/11/28 16:35:14;;;;;;;49.40;26.73;;;;;;;0.89;80.67;98153.31;10456839;28;20052;-70
2021/11/28 16:40:16;;;;;;;47.72;24.42;;;;;;;0.78;81.50;98147.50;10428608;28;20050;-70
2021/11/28 16:45:17;;;;;;;21.52;16.08;;;;;;;0.74;81.25;98149.31;10415026;28;20104;-70
2021/11/28 16:50:20;;;;;;;13.93;11.27;;;;;;;0.63;81.60;98148.72;10415641;28;20053;-69
2021/11/28 16:55:23;;;;;;;24.05;16.33;;;;;;;0.64;81.54;98153.00;10415372;28;20117;-69
2021/11/28 17:00:26;;;;;;;22.00;17.58;;;;;;;0.53;82.31;98148.94;10415604;28;20045;-71
2021/11/28 17:05:28;;;;;;;18.60;16.55;;;;;;;0.55;82.40;98149.75;10415071;28;20037;-69
2021/11/28 17:10:29;;;;;;;20.20;15.13;;;;;;;0.55;82.47;98160.94;10415178;28;20533;-70
2021/11/28 17:15:31;;;;;;;19.30;12.50;;;;;;;0.61;81.66;98160.81;10415111;28;20041;-70
2021/11/28 17:20:34;;;;;;;19.05;15.45;;;;;;;0.55;82.57;98168.72;10415714;28;20144;-71
2021/11/28 17:25:54;;;;;;;16.95;15.35;;;;;;;0.54;83.00;98173.94;10420971;28;20072;-70
2021/11/28 17:30:58;;;;;;;16.92;15.40;;;;;;;0.52;83.46;98167.91;10423725;28;20052;-70
2021/11/28 17:36:01;;;;;;;15.98;14.48;;;;;;;0.54;83.04;98173.94;10423889;28;20499;-69
2021/11/28 17:41:04;;;;;;;15.82;14.57;;;;;;;0.56;82.76;98182.47;10421851;28;20434;-70
2021/11/28 17:46:07;;;;;;;15.52;14.13;;;;;;;0.50;83.31;98184.31;10422533;28;20068;-70
2021/11/28 17:51:09;;;;;;;17.65;15.38;;;;;;;0.47;82.85;98191.28;10420728;28;20107;-69
2021/11/28 17:56:11;;;;;;;16.98;15.10;;;;;;;0.42;83.11;98196.53;10423780;28;20133;-70
2021/11/28 18:01:13;;;;;;;13.80;12.48;;;;;;;0.42;83.15;98198.28;10422451;28;20546;-70
2021/11/28 18:06:16;;;;;;;15.25;13.60;;;;;;;0.44;82.99;98201.69;10404535;28;20407;-69
2021/11/28 18:11:18;;;;;;;16.55;14.88;;;;;;;0.57;82.34;98200.53;10422320;28;20121;-70
2021/11/28 18:16:25;;;;;;;17.23;15.53;;;;;;;0.83;81.79;98204.31;10421347;28;20056;-69
2021/11/28 18:21:27;;;;;;;14.93;13.38;;;;;;;0.79;81.23;98211.28;10433617;28;20315;-69
2021/11/28 18:26:28;;;;;;;18.08;15.60;;;;;;;0.68;82.19;98216.69;10463563;28;20049;-69
2021/11/28 18:31:30;;;;;;;16.20;14.68;;;;;;;0.65;82.18;98216.75;10462268;28;20466;-70
2021/11/28 18:36:32;;;;;;;15.55;13.95;;;;;;;0.71;82.05;98218.38;10460569;28;20098;-70
2021/11/28 18:41:34;;;;;;;16.08;14.50;;;;;;;0.97;81.82;98221.25;10461810;28;20045;-70
2021/11/28 18:46:35;;;;;;;16.40;15.00;;;;;;;0.84;82.12;98222.41;10444801;28;20037;-69
2021/11/28 18:51:38;;;;;;;15.63;14.23;;;;;;;0.75;82.69;98225.16;10443165;28;20045;-70
2021/11/28 18:56:41;;;;;;;16.85;15.23;;;;;;;0.74;82.90;98224.31;10461771;28;20045;-70
2021/11/28 19:01:43;;;;;;;19.33;17.40;;;;;;;0.75;83.06;98219.97;10462350;28;20075;-70
2021/11/28 19:06:46;;;;;;;15.70;14.20;;;;;;;0.75;83.38;98225.16;10442665;28;20048;-70
2021/11/28 19:11:48;;;;;;;17.00;15.35;;;;;;;0.81;83.36;98224.19;10460032;28;20048;-70
2021/11/28 19:16:50;;;;;;;17.67;16.08;;;;;;;0.78;83.20;98226.84;10459034;28;20045;-69
2021/11/28 19:21:52;;;;;;;17.35;15.85;;;;;;;0.70;83.58;98227.84;10441612;28;20052;-70
2021/11/28 19:26:54;;;;;;;17.00;15.55;;;;;;;0.78;83.09;98224.25;10442381;28;20049;-70
2021/11/28 19:31:56;;;;;;;18.52;16.63;;;;;;;0.66;84.02;98225.34;10459826;28;20506;-70
2021/11/28 19:36:58;;;;;;;25.23;22.58;;;;;;;0.60;84.50;98220.31;10441805;28;20078;-70
2021/11/28 19:42:00;;;;;;;24.90;17.90;;;;;;;0.77;83.46;98222.56;10459925;28;20079;-70
2021/11/28 19:47:02;;;;;;;17.08;15.68;;;;;;;0.88;82.59;98228.34;10458257;28;20045;-69
2021/11/28 19:52:05;;;;;;;18.38;15.85;;;;;;;0.83;83.32;98232.75;10459569;28;20037;-70
2021/11/28 19:57:08;;;;;;;17.60;15.93;;;;;;;0.78;84.00;98235.44;10460043;28;20040;-69
2021/11/28 20:02:09;;;;;;;16.63;15.13;;;;;;;0.78;83.94;98238.03;10460046;28;20064;-69
2021/11/28 20:07:12;;;;;;;15.27;13.77;;;;;;;0.81;84.04;98237.13;10450971;22;20140;-71
2021/11/28 20:12:14;;;;;;;14.20;12.90;;;;;;;0.86;83.91;98238.72;10420168;28;20036;-71
2021/11/28 20:17:16;;;;;;;15.80;14.35;;;;;;;0.86;83.79;98243.03;10404033;28;20095;-72
2021/11/28 20:22:18;;;;;;;14.25;13.02;;;;;;;0.83;84.05;98233.59;10420845;28;20052;-71
2021/11/28 20:27:19;;;;;;;13.85;12.75;;;;;;;1.02;83.09;98228.91;10403317;28;20056;-71
2021/11/28 20:32:21;;;;;;;12.68;11.75;;;;;;;1.25;81.37;98230.97;10420272;28;20578;-72
2021/11/28 20:37:25;;;;;;;13.32;12.02;;;;;;;1.39;80.54;98236.66;10419891;28;20039;-71
2021/11/28 20:42:27;;;;;;;13.55;12.48;;;;;;;1.67;79.13;98229.06;10386197;28;20499;-72
2021/11/28 20:47:42;;;;;;;14.00;12.75;;;;;;;1.48;79.91;98222.66;10405258;28;20080;-71
2021/11/28 20:52:46;;;;;;;13.70;12.35;;;;;;;1.26;80.47;98223.16;10403007;28;20033;-72
2021/11/28 20:57:48;;;;;;;13.32;12.10;;;;;;;1.04;81.10;98214.19;10402345;28;20045;-72
2021/11/28 21:02:52;;;;;;;14.23;12.93;;;;;;;0.94;81.64;98221.31;10427878;28;20037;-72
2021/11/28 21:07:55;;;;;;;13.52;12.50;;;;;;;0.66;82.49;98222.75;10412395;28;20144;-72
2021/11/28 21:13:02;;;;;;;14.00;12.93;;;;;;;0.52;83.19;98229.97;10428795;28;20033;-72
2021/11/28 21:18:06;;;;;;;14.00;12.68;;;;;;;0.31;83.96;98234.69;10429118;28;20041;-71
2021/11/28 21:23:08;;;;;;;14.10;12.77;;;;;;;0.20;84.37;98231.44;10409409;28;20061;-72
2021/11/28 21:28:14;;;;;;;14.68;13.27;;;;;;;0.08;85.13;98226.50;10410212;28;20130;-71
2021/11/28 21:33:17;;;;;;;14.95;13.65;;;;;;;0.07;85.18;98225.66;10409727;28;20120;-73
2021/11/28 21:38:19;;;;;;;15.98;13.60;;;;;;;0.06;85.61;98228.28;10425022;28;20041;-72
2021/11/28 21:43:22;;;;;;;15.23;13.93;;;;;;;0.23;85.02;98227.09;10424542;28;20560;-72
2021/11/28 21:48:27;;;;;;;14.57;12.77;;;;;;;0.34;84.83;98220.84;10425371;28;20534;-71
2021/11/28 21:53:29;;;;;;;14.43;13.32;;;;;;;0.42;84.18;98226.72;10423632;28;20450;-73
2021/11/28 21:58:31;;;;;;;13.98;12.70;;;;;;;0.27;85.02;98240.81;10408106;28;20107;-71
2021/11/28 22:03:33;;;;;;;14.38;13.13;;;;;;;0.15;85.50;98238.44;10407261;28;20387;-71
2021/11/28 22:08:35;;;;;;;15.93;14.63;;;;;;;0.31;84.93;98244.16;10405786;28;20052;-71
2021/11/28 22:13:37;;;;;;;17.20;15.30;;;;;;;0.12;85.92;98238.50;10422892;28;20044;-71
2021/11/28 22:18:40;;;;;;;14.88;13.48;;;;;;;0.24;85.88;98238.25;10422278;28;20137;-71
2021/11/28 22:23:42;;;;;;;16.20;14.55;;;;;;;0.46;84.78;98242.13;10421228;28;20453;-71
2021/11/28 22:28:44;;;;;;;14.73;13.30;;;;;;;0.48;84.25;98242.94;10420838;28;20041;-71
2021/11/28 22:33:46;;;;;;;16.00;14.57;;;;;;;0.40;84.40;98242.25;10420394;28;20076;-72
2021/11/28 22:38:50;;;;;;;15.55;14.13;;;;;;;0.18;85.29;98252.16;10420828;28;20406;-71
2021/11/28 22:43:52;;;;;;;15.73;14.38;;;;;;;0.07;85.85;98246.31;10421404;28;20072;-73
2021/11/28 22:48:55;;;;;;;14.80;13.57;;;;;;;0.04;86.02;98250.69;10420992;28;20077;-71
2021/11/28 22:53:57;;;;;;;16.90;15.38;;;;;;;-0.03;85.58;98249.97;10403789;28;20045;-73
2021/11/28 22:58:59;;;;;;;16.15;14.77;;;;;;;-0.18;86.04;98250.22;10420737;28;20041;-71
2021/11/28 23:04:04;;;;;;;18.40;16.52;;;;;;;-0.38;86.82;98256.56;10420250;28;20524;-71
2021/11/28 23:09:08;;;;;;;18.95;17.25;;;;;;;-0.42;86.70;98244.59;10419773;28;20056;-72
2021/11/28 23:14:11;;;;;;;27.48;17.83;;;;;;;-0.48;86.92;98246.44;10419673;28;20551;-71
2021/11/28 23:19:13;;;;;;;17.60;15.90;;;;;;;-0.52;86.64;98251.63;10419667;28;20458;-71
2021/11/28 23:24:15;;;;;;;18.08;16.33;;;;;;;-0.65;86.34;98241.53;10418669;28;20129;-71
2021/11/28 23:29:17;;;;;;;16.45;14.98;;;;;;;-0.64;86.34;98246.66;10401182;28;20041;-71
2021/11/28 23:34:19;;;;;;;18.20;16.50;;;;;;;-0.62;86.37;98249.22;10417945;28;20061;-71
2021/11/28 23:39:21;;;;;;;19.30;17.30;;;;;;;-0.82;86.40;98252.09;10400431;28;20442;-70
2021/11/28 23:44:23;;;;;;;20.13;18.02;;;;;;;-0.81;86.87;98252.06;10417640;28;20057;-70
2021/11/28 23:49:26;;;;;;;18.08;16.42;;;;;;;-0.95;87.30;98264.31;10417749;28;20069;-72